• Join FlightAware (Why Join?)
  • Login
  • US Flag 
04:59AM EDT


 

Airport Tracker/Info


-or-


 

Live Flight TrackerFlight Track Log ✈ SWA691 ✈ 24-Oct-2013 ✈ KTPA - KPVD

Flight Track Log - Related Links

Times and Time Zones

All times are in EDT time to prevent confusion due to time zone crossing. See the SWA691 flight status page for this flight to view local times or setup timezone preferences in your user account.

Time Position Orientation Groundspeed Altitude Reporting Facility
EDT Latitude Longitude Course Direction KTS MPH feet Rate Location/Type
07:50PM 28.0070 -82.5300 353° North 169 194 1,300  Level FlightAware
07:51PM 28.0390 -82.5330 355° North 203 234 2,300 1,980 Climbing FlightAware
07:51PM 28.0650 -82.5350 356° North 221 254 3,400 2,160 Climbing FlightAware
07:52PM 28.1000 -82.5410 351° North 250 288 4,400 2,520 Climbing FlightAware
07:52PM 28.1300 -82.5450 353° North 252 290 5,900 3,300 Climbing FlightAware
07:53PM 28.1700 -82.5510 352° North 266 306 7,700 3,240 Climbing FlightAware
07:53PM 28.2060 -82.5570 352° North 275 316 9,200 3,000 Climbing FlightAware
07:54PM 28.2290 -82.5600 353° North 283 326 10,000 2,100 Climbing FlightAware
07:55PM 28.3160 -82.5730 353° North 337 388 12,000 2,400 Climbing FlightAware
07:55PM 28.3930 -82.5810 355° North 350 403 14,400 2,700 Climbing FlightAware
07:56PM 28.4870 -82.5840 358° North 374 430 16,600 2,400 Climbing FlightAware
07:57PM 28.5970 -82.5860 359° North 388 447 19,200 2,340 Climbing FlightAware
07:58PM 28.6460 -82.5880 358° North 398 458 20,100 1,860 Climbing FlightAware
07:59PM 28.7320 -82.5970 355° North 412 474 21,500 2,040 Climbing FlightAware
07:59PM 28.7990 -82.6060 353° North 412 474 22,900 2,220 Climbing FlightAware
08:00PM 28.8820 -82.6180 353° North 415 478 24,500 1,740 Climbing FlightAware
08:01PM 28.9920 -82.6330 353° North 430 495 25,900 1,500 Climbing FlightAware
08:01PM 29.0390 -82.6400 353° North 437 503 26,500 1,380 Climbing FlightAware
08:02PM 29.1060 -82.6490 353° North 446 513 27,200 1,320 Climbing FlightAware
08:03PM 29.2130 -82.6640 353° North 456 525 28,400 1,320 Climbing FlightAware
08:03PM 29.2720 -82.6720 353° North 460 529 29,000 1,200 Climbing FlightAware
08:04PM 29.3830 -82.6880 353° North 468 539 30,100 1,500 Climbing FlightAware
08:05PM 29.4870 -82.6920 358° North 475 547 31,500 1,380 Climbing FlightAware
08:06PM 29.5900 -82.6920 360° North 483 556 32,300 900 Climbing FlightAware
08:06PM 29.6920 -82.6910 360° North 494 568 32,900 840 Climbing FlightAware
08:07PM 29.7880 -82.6910 360° North 497 572 33,600 1,320 Climbing FlightAware
08:08PM 29.9400 -82.6890 North 486 559 35,300 1,380 Climbing FlightAware
08:09PM 30.0380 -82.6890 360° North 482 555 36,200 1,020 Climbing FlightAware
08:10PM 30.1330 -82.6890 360° North 485 558 36,800 420 Climbing FlightAware
08:11PM 30.2690 -82.6880 360° North 488 562 37,000 60 Climbing FlightAware
08:11PM 30.3640 -82.6870 North 487 560 37,000  Level FlightAware
08:12PM 30.4780 -82.6840 North 494 568 37,000  Level FlightAware
08:13PM 30.5530 -82.6650 12° North 510 587 37,000  Level FlightAware
08:14PM 30.6890 -82.5990 23° Northeast 518 596 37,000  Level FlightAware
08:14PM 30.7920 -82.5480 23° Northeast 517 595 37,000  Level FlightAware
08:15PM 30.8610 -82.5140 23° Northeast 517 595 37,000  Level FlightAware
08:16PM 30.9780 -82.4560 23° Northeast 518 596 37,000  Level FlightAware
08:17PM 31.0750 -82.4090 23° Northeast 520 598 37,000  Level FlightAware
08:17PM 31.0900 -82.4020 22° Northeast 520 598 37,000  Level FlightAware
08:18PM 31.2830 -82.3080 23° Northeast 521 600 37,000  Level FlightAware
08:19PM 31.3990 -82.2510 23° Northeast 522 601 37,000  Level FlightAware
08:19PM 31.4590 -82.2220 22° Northeast 523 602 37,000  Level FlightAware
08:20PM 31.5950 -82.1550 23° Northeast 523 602 37,000  Level FlightAware
08:21PM 31.7160 -82.0950 23° Northeast 523 602 37,000  Level FlightAware
08:22PM 31.8510 -82.0280 23° Northeast 524 603 37,000  Level FlightAware
08:23PM 31.9670 -81.9660 24° Northeast 534 615 37,000  Level FlightAware
08:24PM 32.0670 -81.8780 37° Northeast 544 626 37,000  Level FlightAware
08:25PM 32.1850 -81.7600 40° Northeast 542 624 37,000  Level FlightAware
08:26PM 32.2910 -81.6540 40° Northeast 540 621 37,000  Level FlightAware
08:27PM 32.4060 -81.5390 40° Northeast 537 618 37,000  Level FlightAware
08:28PM 32.5070 -81.4380 40° Northeast 536 617 37,000  Level FlightAware
08:29PM 32.6130 -81.3310 40° Northeast 536 617 37,000  Level FlightAware
08:30PM 32.7180 -81.2240 41° Northeast 537 618 37,000  Level FlightAware
08:31PM 32.8220 -81.1190 40° Northeast 540 621 37,000  Level FlightAware
08:32PM 32.9330 -81.0060 40° Northeast 543 625 37,000  Level FlightAware
08:32PM 32.9950 -80.9430 40° Northeast 546 628 37,000  Level FlightAware
08:33PM 33.0950 -80.8290 44° Northeast 552 635 37,000  Level FlightAware
08:34PM 33.1790 -80.7330 44° Northeast 554 638 37,000  Level FlightAware
08:35PM 33.2700 -80.6280 44° Northeast 554 638 37,000  Level FlightAware
08:35PM 33.3270 -80.5640 43° Northeast 555 639 37,000  Level FlightAware
08:36PM 33.4200 -80.4570 44° Northeast 555 639 37,000  Level FlightAware
08:37PM 33.5070 -80.3570 44° Northeast 554 638 37,000  Level FlightAware
08:38PM 33.5950 -80.2540 44° Northeast 553 636 37,000  Level FlightAware
08:38PM 33.6750 -80.1620 44° Northeast 553 636 37,000  Level FlightAware
08:39PM 33.7120 -80.1180 45° Northeast 553 636 37,000  Level FlightAware
08:40PM 33.8140 -80.0000 44° Northeast 553 636 37,000  Level FlightAware
08:40PM 33.8850 -79.9170 44° Northeast 551 634 37,000  Level FlightAware
08:41PM 33.9380 -79.8550 44° Northeast 550 633 37,000  Level FlightAware
08:41PM 33.9870 -79.7980 44° Northeast 549 632 37,000  Level FlightAware
08:42PM 34.0730 -79.6960 44° Northeast 548 631 37,000  Level FlightAware
08:43PM 34.1540 -79.6010 44° Northeast 549 632 37,000  Level FlightAware
08:44PM 34.2400 -79.5000 44° Northeast 550 633 37,000  Level FlightAware
08:44PM 34.3300 -79.3930 44° Northeast 553 636 37,000  Level FlightAware
08:45PM 34.4370 -79.2660 44° Northeast 555 639 37,000  Level FlightAware
08:46PM 34.4700 -79.2260 45° Northeast 556 640 37,000  Level FlightAware
08:46PM 34.5470 -79.1330 45° Northeast 559 643 37,000  Level FlightAware
08:47PM 34.6490 -79.0110 45° Northeast 560 644 37,000  Level FlightAware
08:48PM 34.7470 -78.8940 44° Northeast 561 646 37,000  Level FlightAware
08:49PM 34.8000 -78.8290 45° Northeast 560 644 37,000  Level FlightAware
08:49PM 34.8710 -78.7440 44° Northeast 562 647 37,000  Level FlightAware
08:50PM 34.9140 -78.6910 45° Northeast 562 647 37,000  Level FlightAware
08:50PM 34.9830 -78.6080 45° Northeast 555 639 37,000  Level FlightAware
08:51PM 35.0290 -78.5520 45° Northeast 556 640 37,000  Level FlightAware
08:51PM 35.0900 -78.4770 45° Northeast 555 639 37,000  Level FlightAware
08:52PM 35.1530 -78.4000 45° Northeast 555 639 37,000  Level FlightAware
08:53PM 35.2800 -78.2440 45° Northeast 555 639 37,000  Level FlightAware
08:54PM 35.3720 -78.1310 45° Northeast 555 639 37,000  Level FlightAware
08:54PM 35.4250 -78.0660 45° Northeast 555 639 37,000  Level FlightAware
08:55PM 35.5250 -77.9410 45° Northeast 555 639 37,000  Level FlightAware
08:56PM 35.6000 -77.8490 45° Northeast 560 644 37,000  Level FlightAware
08:56PM 35.6600 -77.7740 45° Northeast 560 644 37,000  Level FlightAware
08:57PM 35.7650 -77.6420 46° Northeast 560 644 37,000  Level FlightAware
08:58PM 35.8320 -77.5590 45° Northeast 555 639 37,000  Level FlightAware
08:59PM 35.9230 -77.4450 45° Northeast 555 639 37,000  Level FlightAware
09:00PM 36.0220 -77.3190 46° Northeast 561 646 37,000  Level FlightAware
09:00PM 36.0910 -77.2320 46° Northeast 556 640 37,000  Level FlightAware
09:01PM 36.1680 -77.1340 46° Northeast 556 640 37,000  Level FlightAware
09:02PM 36.2550 -77.0240 46° Northeast 556 640 37,000  Level FlightAware
09:03PM 36.3270 -76.9320 46° Northeast 560 644 37,000  Level FlightAware
09:03PM 36.3440 -76.9090 47° Northeast 560 644 37,000  Level FlightAware
09:03PM 36.4160 -76.8170 46° Northeast 560 644 37,000  Level FlightAware
09:04PM 36.4990 -76.7100 46° Northeast 560 644 37,000  Level FlightAware
09:05PM 36.5610 -76.6310 46° Northeast 562 647 37,000  Level FlightAware
09:06PM 36.6480 -76.5180 46° Northeast 562 647 37,000  Level FlightAware
09:06PM 36.7080 -76.4490 43° Northeast 562 647 37,000  Level FlightAware
09:07PM 36.7780 -76.4020 28° Northeast 541 623 37,000  Level FlightAware
09:07PM 36.8470 -76.3520 30° Northeast 543 625 37,000  Level FlightAware
09:08PM 36.9230 -76.2960 30° Northeast 544 626 37,000  Level FlightAware
09:08PM 36.9880 -76.2490 30° Northeast 545 627 37,000  Level FlightAware
09:09PM 37.0720 -76.1880 30° Northeast 546 628 37,000  Level FlightAware
09:10PM 37.1950 -76.0880 33° Northeast 553 636 37,000  Level FlightAware
09:11PM 37.2900 -75.9980 37° Northeast 561 646 37,000  Level FlightAware
09:12PM 37.4180 -75.8750 37° Northeast 563 648 37,000  Level FlightAware
09:12PM 37.4830 -75.8130 37° Northeast 563 648 37,000  Level FlightAware
09:13PM 37.6050 -75.6960 37° Northeast 562 647 37,000  Level FlightAware
09:14PM 37.6580 -75.6460 37° Northeast 562 647 37,000  Level FlightAware
09:14PM 37.7260 -75.5800 38° Northeast 555 639 37,000  Level FlightAware
09:15PM 37.7850 -75.5230 37° Northeast 554 638 37,000  Level FlightAware
09:15PM 37.8990 -75.4130 37° Northeast 551 634 37,000  Level FlightAware
09:16PM 38.0100 -75.3050 37° Northeast 549 632 37,000  Level FlightAware
09:17PM 38.1150 -75.2020 38° Northeast 549 632 37,000  Level FlightAware
09:18PM 38.1780 -75.1410 37° Northeast 549 632 37,000  Level FlightAware
09:19PM 38.2790 -75.0420 38° Northeast 551 634 37,000  Level FlightAware
09:20PM 38.4180 -74.9050 38° Northeast 555 639 37,000  Level FlightAware
09:21PM 38.5190 -74.8050 38° Northeast 557 641 37,000  Level FlightAware
09:22PM 38.6290 -74.6960 38° Northeast 556 640 37,000  Level FlightAware
09:22PM 38.7410 -74.5850 38° Northeast 555 639 37,000  Level FlightAware
09:23PM 38.8660 -74.4590 38° Northeast 554 638 37,000  Level FlightAware
09:24PM 38.9560 -74.3680 38° Northeast 553 636 37,000  Level FlightAware
09:25PM 39.0710 -74.2530 38° Northeast 557 641 37,000  Level FlightAware
09:26PM 39.1790 -74.1430 38° Northeast 558 642 37,000  Level FlightAware
09:27PM 39.2990 -74.0210 38° Northeast 558 642 37,000  Level FlightAware
09:27PM 39.3620 -73.9570 38° Northeast 556 640 37,000  Level FlightAware
09:28PM 39.4700 -73.8460 38° Northeast 556 640 37,000  Level FlightAware
09:29PM 39.5820 -73.7310 38° Northeast 558 642 37,000 -300 Level FlightAware
09:30PM 39.6980 -73.6110 39° Northeast 563 648 36,500 -780 Descending FlightAware
09:31PM 39.8090 -73.4960 39° Northeast 571 657 35,600 -1,020 Descending FlightAware
09:32PM 39.9290 -73.3710 39° Northeast 570 656 34,700 -1,320 Descending FlightAware
09:33PM 40.0300 -73.2640 39° Northeast 559 643 33,300 -1,980 Descending FlightAware
09:34PM 40.1340 -73.1550 39° Northeast 554 638 31,400 -2,220 Descending FlightAware
09:35PM 40.2310 -73.0540 38° Northeast 549 632 29,600 -2,220 Descending FlightAware
09:35PM 40.3010 -72.9790 39° Northeast 545 627 28,300 -2,280 Descending FlightAware
09:36PM 40.3570 -72.9200 39° Northeast 538 619 27,200 -2,280 Descending FlightAware
09:37PM 40.4710 -72.7990 39° Northeast 520 598 25,100 -2,160 Descending FlightAware
09:37PM 40.5340 -72.7320 39° Northeast 509 586 23,900 -2,100 Descending FlightAware
09:38PM 40.5950 -72.6670 39° Northeast 495 570 22,700 -1,620 Descending FlightAware
09:39PM 40.6800 -72.5650 42° Northeast 461 531 21,600 -1,800 Descending FlightAware
09:39PM 40.7360 -72.4710 52° Northeast 445 512 19,900 -2,280 Descending FlightAware
09:40PM 40.8040 -72.3520 53° Northeast 405 466 17,800 -2,220 Descending FlightAware
09:41PM 40.8630 -72.2490 53° Northeast 379 436 15,800 -2,220 Descending FlightAware
09:42PM 40.9020 -72.1820 52° Northeast 362 417 14,500 -2,040 Descending FlightAware
09:42PM 40.9370 -72.1200 53° Northeast 352 405 13,400 -1,500 Descending FlightAware
09:43PM 40.9650 -72.0710 53° Northeast 336 387 12,900 -1,020 Descending FlightAware
09:44PM 41.0200 -71.9760 52° Northeast 325 374 11,900 -1,080 Descending FlightAware
09:45PM 41.0750 -71.9010 46° Northeast 308 354 10,900 -1,020 Descending FlightAware
09:46PM 41.1280 -71.8550 33° Northeast 290 334 10,200 -600 Descending FlightAware
09:46PM 41.1830 -71.8080 33° Northeast 298 343 10,000 -180 Descending FlightAware
09:47PM 41.2190 -71.7760 34° Northeast 296 341 10,000  Level FlightAware
09:47PM 41.2580 -71.7440 32° Northeast 295 339 10,000 -240 Level FlightAware
09:49PM 41.3270 -71.6840 33° Northeast 280 322 9,700 -660 Descending FlightAware
09:49PM 41.3680 -71.6480 33° Northeast 276 318 8,900 -1,200 Descending FlightAware
09:50PM 41.3910 -71.6280 33° Northeast 274 315 8,500 -1,260 Descending FlightAware
09:50PM 41.4140 -71.6070 34° Northeast 273 314 8,000 -1,440 Descending FlightAware
09:50PM 41.4520 -71.5730 34° Northeast 271 312 7,100 -1,440 Descending FlightAware
09:51PM 41.4680 -71.5590 33° Northeast 270 311 6,800 -1,440 Descending FlightAware
09:51PM 41.4980 -71.5320 34° Northeast 269 310 6,100 -1,440 Descending FlightAware
09:52PM 41.5260 -71.5070 34° Northeast 268 308 5,500 -1,320 Descending FlightAware
09:52PM 41.5490 -71.4860 34° Northeast 264 304 5,000 -600 Descending FlightAware
09:53PM 41.5750 -71.4620 35° Northeast 239 275 5,000  Level FlightAware
09:53PM 41.5950 -71.4430 35° Northeast 230 265 5,000 -240 Level FlightAware
09:53PM 41.6240 -71.4150 36° Northeast 223 257 4,800 -660 Descending FlightAware
09:54PM 41.6550 -71.3870 34° Northeast 208 239 4,200 -1,080 Descending FlightAware
09:55PM 41.6740 -71.3680 37° Northeast 204 235 3,700 -1,140 Descending FlightAware
09:55PM 41.6970 -71.3460 36° Northeast 199 229 3,200 -1,140 Descending FlightAware
09:56PM 41.7180 -71.3260 35° Northeast 191 220 2,600 -1,080 Descending FlightAware
09:56PM 41.7280 -71.3200 24° Northeast 174 200 2,400 -1,020 Descending FlightAware
09:57PM 41.7520 -71.3420 326° Northwest 138 159 1,600 -960 Descending FlightAware
09:57PM 41.7590 -71.3550 306° West 127 146 1,400 -540 Descending FlightAware
09:57PM 41.7630 -71.3630 304° West 126 145 1,300 -660 Descending FlightAware
09:58PM 41.7447 -71.4081 304° West 117 135 500 -720 Descending Boston Center
10:00PM 41.7167 -71.4167 255° West  Level FlightAware Approximate